sensor_id;sensor_type;location;lat;lon;timestamp;pressure;altitude;pressure_sealevel;temperature;humidity
64616;BME280;51027;42.162;24.754;2024-01-15T00:02:17;99338.44;;;-1.24;100.00
64616;BME280;51027;42.162;24.754;2024-01-15T00:04:42;99337.59;;;-1.32;100.00
64616;BME280;51027;42.162;24.754;2024-01-15T00:07:08;99332.34;;;-1.52;100.00
64616;BME280;51027;42.162;24.754;2024-01-15T00:09:34;99335.81;;;-1.48;100.00
64616;BME280;51027;42.162;24.754;2024-01-15T00:12:02;99328.09;;;-1.42;100.00
64616;BME280;51027;42.162;24.754;2024-01-15T00:14:27;99320.31;;;-1.51;100.00
64616;BME280;51027;42.162;24.754;2024-01-15T00:16:53;99333.28;;;-1.31;100.00
64616;BME280;51027;42.162;24.754;2024-01-15T00:19:23;99330.69;;;-1.28;100.00
64616;BME280;51027;42.162;24.754;2024-01-15T00:21:49;99331.56;;;-1.23;100.00
64616;BME280;51027;42.162;24.754;2024-01-15T00:24:15;99339.28;;;-1.35;100.00
64616;BME280;51027;42.162;24.754;2024-01-15T00:26:40;99340.97;;;-1.45;100.00
64616;BME280;51027;42.162;24.754;2024-01-15T00:29:09;99331.53;;;-1.37;100.00
64616;BME280;51027;42.162;24.754;2024-01-15T00:31:35;99332.38;;;-1.36;100.00
64616;BME280;51027;42.162;24.754;2024-01-15T00:34:01;99335.84;;;-1.40;100.00
64616;BME280;51027;42.162;24.754;2024-01-15T00:36:27;99298.78;;;-1.50;100.00
64616;BME280;51027;42.162;24.754;2024-01-15T00:38:53;99328.09;;;-1.40;100.00
64616;BME280;51027;42.162;24.754;2024-01-15T00:41:18;99273.78;;;-1.68;100.00
64616;BME280;51027;42.162;24.754;2024-01-15T00:43:44;99318.59;;;-1.51;100.00
64616;BME280;51027;42.162;24.754;2024-01-15T00:46:10;99321.19;;;-1.40;100.00
64616;BME280;51027;42.162;24.754;2024-01-15T00:48:36;99306.50;;;-1.59;100.00
64616;BME280;51027;42.162;24.754;2024-01-15T00:51:03;99315.09;;;-1.54;100.00
64616;BME280;51027;42.162;24.754;2024-01-15T00:53:29;99280.63;;;-1.78;100.00
64616;BME280;51027;42.162;24.754;2024-01-15T00:55:54;99315.94;;;-1.66;100.00
64616;BME280;51027;42.162;24.754;2024-01-15T00:58:20;99302.94;;;-1.93;100.00
64616;BME280;51027;42.162;24.754;2024-01-15T01:00:45;99310.72;;;-1.75;100.00
64616;BME280;51027;42.162;24.754;2024-01-15T01:03:11;99270.22;;;-1.99;100.00
64616;BME280;51027;42.162;24.754;2024-01-15T01:05:36;99286.63;;;-1.77;100.00
64616;BME280;51027;42.162;24.754;2024-01-15T01:08:03;99291.75;;;-1.91;100.00
64616;BME280;51027;42.162;24.754;2024-01-15T01:10:28;99303.88;;;-1.65;100.00
64616;BME280;51027;42.162;24.754;2024-01-15T01:12:54;99306.44;;;-1.78;100.00
64616;BME280;51027;42.162;24.754;2024-01-15T01:15:19;99307.28;;;-1.74;100.00
64616;BME280;51027;42.162;24.754;2024-01-15T01:17:45;99282.25;;;-1.98;100.00
64616;BME280;51027;42.162;24.754;2024-01-15T01:20:11;99293.53;;;-1.75;100.00
64616;BME280;51027;42.162;24.754;2024-01-15T01:22:37;99298.69;;;-1.78;100.00
64616;BME280;51027;42.162;24.754;2024-01-15T01:25:03;99278.81;;;-2.00;100.00
64616;BME280;51027;42.162;24.754;2024-01-15T01:27:28;99308.09;;;-1.93;100.00
64616;BME280;51027;42.162;24.754;2024-01-15T01:29:54;99308.94;;;-1.94;100.00
64616;BME280;51027;42.162;24.754;2024-01-15T01:32:19;99295.09;;;-2.13;100.00
64616;BME280;51027;42.162;24.754;2024-01-15T01:34:45;99302.84;;;-2.09;100.00
64616;BME280;51027;42.162;24.754;2024-01-15T01:37:11;99303.75;;;-1.97;100.00
64616;BME280;51027;42.162;24.754;2024-01-15T01:39:43;99306.97;;;-2.40;100.00
64616;BME280;51027;42.162;24.754;2024-01-15T01:42:09;99285.41;;;-2.52;100.00
64616;BME280;51027;42.162;24.754;2024-01-15T01:44:34;99282.03;;;-2.39;100.00
64616;BME280;51027;42.162;24.754;2024-01-15T01:47:00;99279.47;;;-2.39;100.00
64616;BME280;51027;42.162;24.754;2024-01-15T01:49:27;99304.41;;;-2.38;100.00
64616;BME280;51027;42.162;24.754;2024-01-15T01:51:55;99293.22;;;-2.43;100.00
64616;BME280;51027;42.162;24.754;2024-01-15T01:54:22;99279.34;;;-2.62;100.00
64616;BME280;51027;42.162;24.754;2024-01-15T01:56:48;99291.50;;;-2.44;100.00
64616;BME280;51027;42.162;24.754;2024-01-15T01:59:15;99287.13;;;-2.51;100.00
64616;BME280;51027;42.162;24.754;2024-01-15T02:01:40;99278.59;;;-2.41;100.00
64616;BME280;51027;42.162;24.754;2024-01-15T02:04:07;99267.38;;;-2.46;100.00
64616;BME280;51027;42.162;24.754;2024-01-15T02:06:33;99260.50;;;-2.50;100.00
64616;BME280;51027;42.162;24.754;2024-01-15T02:08:59;99285.47;;;-2.42;100.00
64616;BME280;51027;42.162;24.754;2024-01-15T02:11:25;99292.31;;;-2.45;100.00
64616;BME280;51027;42.162;24.754;2024-01-15T02:13:50;99284.63;;;-2.41;100.00
64616;BME280;51027;42.162;24.754;2024-01-15T02:16:16;99279.47;;;-2.38;100.00
64616;BME280;51027;42.162;24.754;2024-01-15T02:18:42;99260.56;;;-2.35;100.00
64616;BME280;51027;42.162;24.754;2024-01-15T02:21:09;99279.56;;;-2.21;100.00
64616;BME280;51027;42.162;24.754;2024-01-15T02:23:34;99276.09;;;-2.30;100.00
64616;BME280;51027;42.162;24.754;2024-01-15T02:26:01;99282.16;;;-2.21;100.00
64616;BME280;51027;42.162;24.754;2024-01-15T02:28:26;99266.63;;;-2.28;100.00
64616;BME280;51027;42.162;24.754;2024-01-15T02:30:52;99282.09;;;-2.35;100.00
64616;BME280;51027;42.162;24.754;2024-01-15T02:33:18;99266.38;;;-2.73;100.00
64616;BME280;51027;42.162;24.754;2024-01-15T02:35:43;99262.28;;;-2.36;100.00
64616;BME280;51027;42.162;24.754;2024-01-15T02:38:09;99273.56;;;-2.23;100.00
64616;BME280;51027;42.162;24.754;2024-01-15T02:40:35;99282.19;;;-2.13;100.00
64616;BME280;51027;42.162;24.754;2024-01-15T02:43:00;99282.97;;;-2.25;100.00
64616;BME280;51027;42.162;24.754;2024-01-15T02:45:26;99260.56;;;-2.38;100.00
64616;BME280;51027;42.162;24.754;2024-01-15T02:47:52;99281.25;;;-2.32;100.00
64616;BME280;51027;42.162;24.754;2024-01-15T02:50:18;99264.88;;;-2.36;100.00
64616;BME280;51027;42.162;24.754;2024-01-15T02:52:43;99283.13;;;-2.04;100.00
64616;BME280;51027;42.162;24.754;2024-01-15T02:55:09;99274.47;;;-2.09;100.00
64616;BME280;51027;42.162;24.754;2024-01-15T02:57:34;99235.69;;;-2.30;100.00
64616;BME280;51027;42.162;24.754;2024-01-15T03:00:00;99269.31;;;-2.06;100.00
64616;BME280;51027;42.162;24.754;2024-01-15T03:02:26;99268.56;;;-1.76;100.00
64616;BME280;51027;42.162;24.754;2024-01-15T03:04:51;99257.28;;;-2.10;100.00
64616;BME280;51027;42.162;24.754;2024-01-15T03:07:17;99259.81;;;-2.20;100.00
64616;BME280;51027;42.162;24.754;2024-01-15T03:09:42;99257.13;;;-2.36;100.00
64616;BME280;51027;42.162;24.754;2024-01-15T03:12:08;99259.59;;;-2.57;100.00
64616;BME280;51027;42.162;24.754;2024-01-15T03:14:35;99242.50;;;-2.44;100.00
64616;BME280;51027;42.162;24.754;2024-01-15T03:17:01;99257.13;;;-2.42;100.00
64616;BME280;51027;42.162;24.754;2024-01-15T03:19:27;99264.00;;;-2.42;100.00
64616;BME280;51027;42.162;24.754;2024-01-15T03:21:52;99251.97;;;-2.37;100.00
64616;BME280;51027;42.162;24.754;2024-01-15T03:24:18;99256.31;;;-2.33;100.00
64616;BME280;51027;42.162;24.754;2024-01-15T03:26:43;99248.56;;;-2.33;100.00
64616;BME280;51027;42.162;24.754;2024-01-15T03:29:09;99229.63;;;-2.38;100.00
64616;BME280;51027;42.162;24.754;2024-01-15T03:31:34;99233.06;;;-2.39;100.00
64616;BME280;51027;42.162;24.754;2024-01-15T03:34:00;99247.72;;;-2.26;100.00
64616;BME280;51027;42.162;24.754;2024-01-15T03:36:25;99250.31;;;-2.29;100.00
64616;BME280;51027;42.162;24.754;2024-01-15T03:38:51;99237.34;;;-2.37;100.00
64616;BME280;51027;42.162;24.754;2024-01-15T03:41:16;99158.03;;;-2.91;100.00
64616;BME280;51027;42.162;24.754;2024-01-15T03:43:42;99242.41;;;-2.56;100.00
64616;BME280;51027;42.162;24.754;2024-01-15T03:46:07;99210.47;;;-2.78;100.00
64616;BME280;51027;42.162;24.754;2024-01-15T03:48:33;99233.72;;;-2.71;100.00
64616;BME280;51027;42.162;24.754;2024-01-15T03:50:58;99271.72;;;-2.42;100.00
64616;BME280;51027;42.162;24.754;2024-01-15T03:53:24;99274.91;;;-2.77;100.00
64616;BME280;51027;42.162;24.754;2024-01-15T03:55:50;99245.75;;;-2.70;100.00
64616;BME280;51027;42.162;24.754;2024-01-15T03:58:15;99268.97;;;-2.70;100.00
64616;BME280;51027;42.162;24.754;2024-01-15T04:00:42;99265.66;;;-2.47;100.00
64616;BME280;51027;42.162;24.754;2024-01-15T04:03:07;99249.28;;;-2.57;100.00
64616;BME280;51027;42.162;24.754;2024-01-15T04:05:33;99222.44;;;-2.90;100.00
64616;BME280;51027;42.162;24.754;2024-01-15T04:07:58;99253.50;;;-2.73;100.00
64616;BME280;51027;42.162;24.754;2024-01-15T04:10:24;99262.16;;;-2.58;100.00
64616;BME280;51027;42.162;24.754;2024-01-15T04:12:49;99255.22;;;-2.67;100.00
64616;BME280;51027;42.162;24.754;2024-01-15T04:15:15;99241.47;;;-2.68;100.00
64616;BME280;51027;42.162;24.754;2024-01-15T04:17:40;99234.53;;;-2.81;100.00
64616;BME280;51027;42.162;24.754;2024-01-15T04:20:07;99246.56;;;-2.77;100.00
64616;BME280;51027;42.162;24.754;2024-01-15T04:22:33;99247.25;;;-3.04;100.00
64616;BME280;51027;42.162;24.754;2024-01-15T04:24:59;99246.47;;;-2.95;100.00
64616;BME280;51027;42.162;24.754;2024-01-15T04:27:24;99249.13;;;-2.78;100.00
64616;BME280;51027;42.162;24.754;2024-01-15T04:29:50;99222.44;;;-2.88;100.00
64616;BME280;51027;42.162;24.754;2024-01-15T04:32:15;99244.03;;;-2.71;100.00
64616;BME280;51027;42.162;24.754;2024-01-15T04:34:41;99228.66;;;-2.55;100.00
64616;BME280;51027;42.162;24.754;2024-01-15T04:37:06;99220.97;;;-2.54;100.00
64616;BME280;51027;42.162;24.754;2024-01-15T04:39:32;99240.78;;;-2.42;100.00
64616;BME280;51027;42.162;24.754;2024-01-15T04:41:57;99237.31;;;-2.47;100.00
64616;BME280;51027;42.162;24.754;2024-01-15T04:44:23;99242.41;;;-2.59;100.00
64616;BME280;51027;42.162;24.754;2024-01-15T04:46:48;99234.59;;;-2.69;100.00
64616;BME280;51027;42.162;24.754;2024-01-15T04:49:14;99223.56;;;-2.46;100.00
64616;BME280;51027;42.162;24.754;2024-01-15T04:51:39;99224.41;;;-2.55;100.00
64616;BME280;51027;42.162;24.754;2024-01-15T04:54:05;99242.41;;;-2.59;100.00
64616;BME280;51027;42.162;24.754;2024-01-15T04:56:31;99239.81;;;-2.61;100.00
64616;BME280;51027;42.162;24.754;2024-01-15T04:58:56;99236.50;;;-2.40;100.00
64616;BME280;51027;42.162;24.754;2024-01-15T05:01:22;99223.56;;;-2.48;100.00
64616;BME280;51027;42.162;24.754;2024-01-15T05:03:47;99214.91;;;-2.61;100.00
64616;BME280;51027;42.162;24.754;2024-01-15T05:06:13;99217.56;;;-2.44;100.00
64616;BME280;51027;42.162;24.754;2024-01-15T05:08:39;99220.91;;;-2.57;100.00
64616;BME280;51027;42.162;24.754;2024-01-15T05:11:04;99214.09;;;-2.55;100.00
64616;BME280;51027;42.162;24.754;2024-01-15T05:13:30;99191.75;;;-2.54;100.00
64616;BME280;51027;42.162;24.754;2024-01-15T05:15:55;99193.53;;;-2.38;100.00
64616;BME280;51027;42.162;24.754;2024-01-15T05:18:21;99192.56;;;-2.63;100.00
64616;BME280;51027;42.162;24.754;2024-01-15T05:20:47;99194.25;;;-2.65;100.00
64616;BME280;51027;42.162;24.754;2024-01-15T05:23:12;99190.84;;;-2.63;100.00
64616;BME280;51027;42.162;24.754;2024-01-15T05:25:38;99176.25;;;-2.59;100.00
64616;BME280;51027;42.162;24.754;2024-01-15T05:28:05;99166.69;;;-2.77;100.00
64616;BME280;51027;42.162;24.754;2024-01-15T05:30:30;99193.31;;;-2.76;100.00
64616;BME280;51027;42.162;24.754;2024-01-15T05:32:56;99189.91;;;-2.75;100.00
64616;BME280;51027;42.162;24.754;2024-01-15T05:35:22;99164.97;;;-2.81;100.00
64616;BME280;51027;42.162;24.754;2024-01-15T05:37:48;99155.25;;;-3.19;100.00
64616;BME280;51027;42.162;24.754;2024-01-15T05:40:14;99164.66;;;-3.27;100.00
64616;BME280;51027;42.162;24.754;2024-01-15T05:42:40;99181.06;;;-3.12;100.00
64616;BME280;51027;42.162;24.754;2024-01-15T05:45:06;99162.06;;;-3.30;100.00
64616;BME280;51027;42.162;24.754;2024-01-15T05:47:31;99194.72;;;-3.23;100.00
64616;BME280;51027;42.162;24.754;2024-01-15T05:49:58;99187.06;;;-3.13;100.00
64616;BME280;51027;42.162;24.754;2024-01-15T05:52:23;99199.94;;;-3.13;100.00
64616;BME280;51027;42.162;24.754;2024-01-15T05:54:49;99207.06;;;-3.79;100.00
64616;BME280;51027;42.162;24.754;2024-01-15T05:57:15;99207.25;;;-3.62;100.00
64616;BME280;51027;42.162;24.754;2024-01-15T05:59:41;99196.06;;;-3.66;100.00
64616;BME280;51027;42.162;24.754;2024-01-15T06:02:06;99187.00;;;-3.23;100.00
64616;BME280;51027;42.162;24.754;2024-01-15T06:04:32;99182.78;;;-3.13;100.00
64616;BME280;51027;42.162;24.754;2024-01-15T06:06:57;99193.31;;;-2.76;100.00
64616;BME280;51027;42.162;24.754;2024-01-15T06:09:23;99193.47;;;-2.47;100.00
64616;BME280;51027;42.162;24.754;2024-01-15T06:11:48;99150.47;;;-2.59;100.00
64616;BME280;51027;42.162;24.754;2024-01-15T06:14:14;99165.16;;;-2.43;100.00
64616;BME280;51027;42.162;24.754;2024-01-15T06:16:39;99164.28;;;-2.42;100.00
64616;BME280;51027;42.162;24.754;2024-01-15T06:19:05;99162.56;;;-2.40;100.00
64616;BME280;51027;42.162;24.754;2024-01-15T06:21:30;99190.16;;;-2.16;100.00
64616;BME280;51027;42.162;24.754;2024-01-15T06:23:56;99207.97;;;-2.72;100.00
64616;BME280;51027;42.162;24.754;2024-01-15T06:26:22;99228.72;;;-2.48;100.00
64616;BME280;51027;42.162;24.754;2024-01-15T06:28:48;99191.47;;;-2.97;100.00
64616;BME280;51027;42.162;24.754;2024-01-15T06:31:13;99226.13;;;-2.52;100.00
64616;BME280;51027;42.162;24.754;2024-01-15T06:33:39;99227.19;;;-2.14;100.00
64616;BME280;51027;42.162;24.754;2024-01-15T06:36:05;99211.78;;;-1.91;100.00
64616;BME280;51027;42.162;24.754;2024-01-15T06:38:31;99216.00;;;-2.13;100.00
64616;BME280;51027;42.162;24.754;2024-01-15T06:40:56;99223.66;;;-2.34;100.00
64616;BME280;51027;42.162;24.754;2024-01-15T06:43:22;99220.16;;;-2.36;100.00
64616;BME280;51027;42.162;24.754;2024-01-15T06:45:47;99215.06;;;-2.35;100.00
64616;BME280;51027;42.162;24.754;2024-01-15T06:48:12;99212.63;;;-1.87;100.00
64616;BME280;51027;42.162;24.754;2024-01-15T06:50:45;99208.31;;;-1.85;100.00
64616;BME280;51027;42.162;24.754;2024-01-15T06:53:10;99196.91;;;-2.54;100.00
64616;BME280;51027;42.162;24.754;2024-01-15T06:55:38;99198.81;;;-2.12;100.00
64616;BME280;51027;42.162;24.754;2024-01-15T06:58:04;99206.56;;;-2.01;100.00
64616;BME280;51027;42.162;24.754;2024-01-15T07:00:30;99215.28;;;-1.55;100.00
64616;BME280;51027;42.162;24.754;2024-01-15T07:02:56;99208.41;;;-1.53;100.00
64616;BME280;51027;42.162;24.754;2024-01-15T07:05:22;99198.06;;;-1.13;97.57
64616;BME280;51027;42.162;24.754;2024-01-15T07:07:47;99196.28;;;-0.50;92.16
64616;BME280;51027;42.162;24.754;2024-01-15T07:10:13;99207.47;;;-0.54;90.13
64616;BME280;51027;42.162;24.754;2024-01-15T07:12:42;99211.00;;;-1.09;94.23
64616;BME280;51027;42.162;24.754;2024-01-15T07:15:07;99196.38;;;-1.16;95.10
64616;BME280;51027;42.162;24.754;2024-01-15T07:17:34;99183.38;;;-0.72;92.75
64616;BME280;51027;42.162;24.754;2024-01-15T07:19:59;99138.66;;;-1.06;93.07
64616;BME280;51027;42.162;24.754;2024-01-15T07:22:25;99194.50;;;-0.44;90.51
64616;BME280;51027;42.162;24.754;2024-01-15T07:24:50;99204.84;;;-0.35;90.84
64616;BME280;51027;42.162;24.754;2024-01-15T07:27:16;99209.06;;;-0.14;90.19
64616;BME280;51027;42.162;24.754;2024-01-15T07:29:41;99208.00;;;0.27;86.64
64616;BME280;51027;42.162;24.754;2024-01-15T07:32:08;99215.00;;;0.13;88.36
64616;BME280;51027;42.162;24.754;2024-01-15T07:34:34;99197.66;;;1.36;83.21
64616;BME280;51027;42.162;24.754;2024-01-15T07:36:59;99185.56;;;3.20;73.36
64616;BME280;51027;42.162;24.754;2024-01-15T07:39:25;99185.31;;;2.82;72.87
64616;BME280;51027;42.162;24.754;2024-01-15T07:41:51;99184.06;;;3.05;70.11
64616;BME280;51027;42.162;24.754;2024-01-15T07:44:17;99196.09;;;4.03;68.36
64616;BME280;51027;42.162;24.754;2024-01-15T07:46:48;99189.81;;;4.89;64.29
64616;BME280;51027;42.162;24.754;2024-01-15T07:49:14;99204.81;;;4.42;64.87
64616;BME280;51027;42.162;24.754;2024-01-15T07:51:39;99219.88;;;2.30;72.58
64616;BME280;51027;42.162;24.754;2024-01-15T07:54:09;99216.56;;;0.43;79.41
64616;BME280;51027;42.162;24.754;2024-01-15T07:56:41;99196.34;;;-1.05;90.71
64616;BME280;51027;42.162;24.754;2024-01-15T07:59:17;99217.56;;;0.17;87.49
64616;BME280;51027;42.162;24.754;2024-01-15T08:01:43;99225.69;;;0.91;84.61
64616;BME280;51027;42.162;24.754;2024-01-15T08:04:08;99229.16;;;3.05;74.14
64616;BME280;51027;42.162;24.754;2024-01-15T08:06:34;99226.84;;;4.27;68.25
64616;BME280;51027;42.162;24.754;2024-01-15T08:09:00;99221.81;;;6.57;60.65
64616;BME280;51027;42.162;24.754;2024-01-15T08:11:25;99214.16;;;8.75;52.77
64616;BME280;51027;42.162;24.754;2024-01-15T08:13:51;99211.13;;;9.89;49.03
64616;BME280;51027;42.162;24.754;2024-01-15T08:16:17;99222.91;;;9.60;48.89
64616;BME280;51027;42.162;24.754;2024-01-15T08:18:42;99230.78;;;7.31;52.15
64616;BME280;51027;42.162;24.754;2024-01-15T08:21:09;99252.72;;;4.37;61.60
64616;BME280;51027;42.162;24.754;2024-01-15T08:23:34;99236.16;;;5.15;62.39
64616;BME280;51027;42.162;24.754;2024-01-15T08:26:00;99229.47;;;6.04;58.87
64616;BME280;51027;42.162;24.754;2024-01-15T08:28:25;99237.31;;;5.37;61.64
64616;BME280;51027;42.162;24.754;2024-01-15T08:30:51;99243.00;;;4.45;65.24
64616;BME280;51027;42.162;24.754;2024-01-15T08:33:16;99210.81;;;4.84;65.82
64616;BME280;51027;42.162;24.754;2024-01-15T08:35:42;99241.16;;;6.22;61.36
64616;BME280;51027;42.162;24.754;2024-01-15T08:38:07;99229.19;;;5.15;63.72
64616;BME280;51027;42.162;24.754;2024-01-15T08:40:33;99237.84;;;3.55;69.67
64616;BME280;51027;42.162;24.754;2024-01-15T08:42:58;99229.34;;;2.93;73.91
64616;BME280;51027;42.162;24.754;2024-01-15T08:45:24;99214.94;;;2.72;74.16
64616;BME280;51027;42.162;24.754;2024-01-15T08:47:49;99199.66;;;4.78;67.72
64616;BME280;51027;42.162;24.754;2024-01-15T08:50:15;99215.38;;;5.10;65.47
64616;BME280;51027;42.162;24.754;2024-01-15T08:52:40;99202.56;;;6.00;62.36
64616;BME280;51027;42.162;24.754;2024-01-15T08:55:06;99187.28;;;5.85;62.09
64616;BME280;51027;42.162;24.754;2024-01-15T08:57:32;99187.47;;;4.41;67.00
64616;BME280;51027;42.162;24.754;2024-01-15T08:59:58;99185.66;;;3.61;69.68
64616;BME280;51027;42.162;24.754;2024-01-15T09:02:24;99152.28;;;3.38;71.19
64616;BME280;51027;42.162;24.754;2024-01-15T09:04:50;99178.50;;;3.28;72.25
64616;BME280;51027;42.162;24.754;2024-01-15T09:07:15;99181.72;;;2.91;74.16
64616;BME280;51027;42.162;24.754;2024-01-15T09:09:41;99176.22;;;2.57;75.71
64616;BME280;51027;42.162;24.754;2024-01-15T09:12:08;99153.47;;;2.70;75.12
64616;BME280;51027;42.162;24.754;2024-01-15T09:14:33;99159.91;;;2.44;75.74
64616;BME280;51027;42.162;24.754;2024-01-15T09:16:59;99152.59;;;2.12;77.63
64616;BME280;51027;42.162;24.754;2024-01-15T09:19:25;99173.06;;;2.91;75.58
64616;BME280;51027;42.162;24.754;2024-01-15T09:21:50;99162.03;;;2.76;75.91
64616;BME280;51027;42.162;24.754;2024-01-15T09:24:15;99172.47;;;2.73;76.85
64616;BME280;51027;42.162;24.754;2024-01-15T09:26:41;99157.47;;;2.89;76.79
64616;BME280;51027;42.162;24.754;2024-01-15T09:29:06;99151.75;;;3.20;75.92
64616;BME280;51027;42.162;24.754;2024-01-15T09:31:32;99157.38;;;3.43;74.82
64616;BME280;51027;42.162;24.754;2024-01-15T09:33:58;99139.31;;;3.79;73.55
64616;BME280;51027;42.162;24.754;2024-01-15T09:36:25;99143.63;;;3.35;75.13
64616;BME280;51027;42.162;24.754;2024-01-15T09:38:51;99131.88;;;4.76;70.29
64616;BME280;51027;42.162;24.754;2024-01-15T09:41:16;99145.34;;;7.51;61.22
64616;BME280;51027;42.162;24.754;2024-01-15T09:43:42;99140.28;;;6.43;61.03
64616;BME280;51027;42.162;24.754;2024-01-15T09:46:08;99133.06;;;4.63;67.93
64616;BME280;51027;42.162;24.754;2024-01-15T09:48:34;99116.34;;;4.34;69.72
64616;BME280;51027;42.162;24.754;2024-01-15T09:51:01;99110.66;;;3.79;72.28
64616;BME280;51027;42.162;24.754;2024-01-15T09:53:27;99124.53;;;3.37;75.69
64616;BME280;51027;42.162;24.754;2024-01-15T09:55:53;99122.78;;;3.38;76.29
64616;BME280;51027;42.162;24.754;2024-01-15T09:58:19;99113.88;;;3.50;76.93
64616;BME280;51027;42.162;24.754;2024-01-15T10:00:47;99102.16;;;3.70;76.80
64616;BME280;51027;42.162;24.754;2024-01-15T10:03:15;99080.31;;;4.15;74.16
64616;BME280;51027;42.162;24.754;2024-01-15T10:05:40;99113.06;;;5.61;69.60
64616;BME280;51027;42.162;24.754;2024-01-15T10:08:06;99096.22;;;7.82;61.20
64616;BME280;51027;42.162;24.754;2024-01-15T10:10:32;99092.22;;;7.23;62.75
64616;BME280;51027;42.162;24.754;2024-01-15T10:12:58;99088.13;;;6.38;64.27
64616;BME280;51027;42.162;24.754;2024-01-15T10:15:27;99030.09;;;6.78;61.58
64616;BME280;51027;42.162;24.754;2024-01-15T10:17:54;99086.19;;;5.27;68.13
64616;BME280;51027;42.162;24.754;2024-01-15T10:20:20;99081.34;;;4.08;72.67
64616;BME280;51027;42.162;24.754;2024-01-15T10:22:47;99064.94;;;3.65;75.22
64616;BME280;51027;42.162;24.754;2024-01-15T10:25:13;99056.47;;;4.31;73.74
64616;BME280;51027;42.162;24.754;2024-01-15T10:27:40;99027.63;;;4.38;73.75
64616;BME280;51027;42.162;24.754;2024-01-15T10:30:07;99013.94;;;5.57;69.77
64616;BME280;51027;42.162;24.754;2024-01-15T10:32:33;99030.19;;;6.24;66.32
64616;BME280;51027;42.162;24.754;2024-01-15T10:34:59;99024.50;;;6.38;65.16
64616;BME280;51027;42.162;24.754;2024-01-15T10:37:24;99018.09;;;9.16;58.73
64616;BME280;51027;42.162;24.754;2024-01-15T10:39:50;98990.88;;;14.28;44.45
64616;BME280;51027;42.162;24.754;2024-01-15T10:42:16;98962.47;;;13.76;42.08
64616;BME280;51027;42.162;24.754;2024-01-15T10:44:44;98945.81;;;10.36;49.48
64616;BME280;51027;42.162;24.754;2024-01-15T10:47:12;98950.44;;;8.82;53.22
64616;BME280;51027;42.162;24.754;2024-01-15T10:49:37;98979.94;;;8.89;54.43
64616;BME280;51027;42.162;24.754;2024-01-15T10:52:03;98990.41;;;12.05;47.62
64616;BME280;51027;42.162;24.754;2024-01-15T10:54:29;98989.84;;;15.72;39.06
64616;BME280;51027;42.162;24.754;2024-01-15T10:56:58;98984.16;;;13.96;41.67
64616;BME280;51027;42.162;24.754;2024-01-15T10:59:24;98984.09;;;17.09;35.85
64616;BME280;51027;42.162;24.754;2024-01-15T11:01:50;98975.94;;;18.55;33.03
64616;BME280;51027;42.162;24.754;2024-01-15T11:04:20;98979.78;;;18.73;32.72
64616;BME280;51027;42.162;24.754;2024-01-15T11:06:49;98974.16;;;20.87;29.42
64616;BME280;51027;42.162;24.754;2024-01-15T11:09:15;98958.41;;;20.74;28.99
64616;BME280;51027;42.162;24.754;2024-01-15T11:11:46;98959.63;;;20.99;28.40
64616;BME280;51027;42.162;24.754;2024-01-15T11:14:42;98939.69;;;21.85;27.44
64616;BME280;51027;42.162;24.754;2024-01-15T11:17:11;98931.59;;;21.95;26.18
64616;BME280;51027;42.162;24.754;2024-01-15T11:19:44;98926.66;;;20.98;27.60
64616;BME280;51027;42.162;24.754;2024-01-15T11:24:52;98911.97;;;19.67;28.53
64616;BME280;51027;42.162;24.754;2024-01-15T11:27:44;98916.06;;;19.10;29.79
64616;BME280;51027;42.162;24.754;2024-01-15T11:30:11;98875.91;;;18.81;29.28
64616;BME280;51027;42.162;24.754;2024-01-15T11:32:37;98918.50;;;16.75;31.41
64616;BME280;51027;42.162;24.754;2024-01-15T11:35:07;98912.03;;;19.16;29.30
64616;BME280;51027;42.162;24.754;2024-01-15T11:40:21;98910.34;;;15.58;33.93
64616;BME280;51027;42.162;24.754;2024-01-15T11:42:47;98906.06;;;15.19;34.85
64616;BME280;51027;42.162;24.754;2024-01-15T11:45:15;98913.13;;;13.75;36.94
64616;BME280;51027;42.162;24.754;2024-01-15T11:48:09;98915.56;;;13.37;37.59
64616;BME280;51027;42.162;24.754;2024-01-15T11:50:44;98909.78;;;12.59;39.52
64616;BME280;51027;42.162;24.754;2024-01-15T11:55:51;98903.28;;;12.65;40.32
64616;BME280;51027;42.162;24.754;2024-01-15T11:58:16;98878.97;;;13.58;37.58
64616;BME280;51027;42.162;24.754;2024-01-15T12:00:47;98891.28;;;13.45;39.01
64616;BME280;51027;42.162;24.754;2024-01-15T12:03:13;98885.81;;;11.72;42.28
64616;BME280;51027;42.162;24.754;2024-01-15T12:05:39;98876.63;;;11.32;43.17
64616;BME280;51027;42.162;24.754;2024-01-15T12:08:05;98880.06;;;10.18;46.01
64616;BME280;51027;42.162;24.754;2024-01-15T12:10:38;98879.59;;;10.94;45.47
64616;BME280;51027;42.162;24.754;2024-01-15T12:13:12;98865.81;;;11.68;44.12
64616;BME280;51027;42.162;24.754;2024-01-15T12:15:38;98897.31;;;11.56;44.22
64616;BME280;51027;42.162;24.754;2024-01-15T12:18:08;98889.06;;;11.46;45.31
64616;BME280;51027;42.162;24.754;2024-01-15T12:20:34;98883.72;;;10.15;47.50
64616;BME280;51027;42.162;24.754;2024-01-15T12:23:01;98893.06;;;9.12;50.50
64616;BME280;51027;42.162;24.754;2024-01-15T12:25:29;98886.91;;;7.93;54.46
64616;BME280;51027;42.162;24.754;2024-01-15T12:27:55;98873.22;;;7.20;57.50
64616;BME280;51027;42.162;24.754;2024-01-15T12:30:21;98858.00;;;7.08;58.55
64616;BME280;51027;42.162;24.754;2024-01-15T12:32:47;98851.16;;;6.81;60.61
64616;BME280;51027;42.162;24.754;2024-01-15T12:35:13;98861.19;;;6.70;61.10
64616;BME280;51027;42.162;24.754;2024-01-15T12:37:39;98848.69;;;6.54;61.92
64616;BME280;51027;42.162;24.754;2024-01-15T12:40:07;98853.00;;;6.55;62.37
64616;BME280;51027;42.162;24.754;2024-01-15T12:42:33;98860.78;;;6.57;62.87
64616;BME280;51027;42.162;24.754;2024-01-15T12:45:03;98861.41;;;6.63;62.43
64616;BME280;51027;42.162;24.754;2024-01-15T12:47:30;98863.28;;;6.60;62.74
64616;BME280;51027;42.162;24.754;2024-01-15T12:49:57;98869.59;;;6.54;62.89
64616;BME280;51027;42.162;24.754;2024-01-15T12:52:27;98861.50;;;6.37;63.82